createdAt,value
2022-11-01T00:01:34.300Z,99163.63
2022-11-01T00:04:37.728Z,99166.28
2022-11-01T00:07:40.483Z,99164.41
2022-11-01T00:10:43.730Z,99166.16
2022-11-01T00:13:47.780Z,99167.97
2022-11-01T00:16:51.203Z,99163.47
2022-11-01T00:19:53.804Z,99155.34
2022-11-01T00:22:56.883Z,99169.75
2022-11-01T00:26:00.497Z,99167.97
2022-11-01T00:29:03.570Z,99155.37
2022-11-01T00:32:06.955Z,99151.81
2022-11-01T00:35:09.739Z,99154.53
2022-11-01T00:38:12.247Z,99137.00
2022-11-01T00:41:15.686Z,99153.72
2022-11-01T00:44:18.136Z,99153.66
2022-11-01T00:47:21.014Z,99146.47
2022-11-01T00:50:23.489Z,99141.16
2022-11-01T00:53:26.351Z,99138.44
2022-11-01T00:56:28.902Z,99136.56
2022-11-01T00:59:31.664Z,99149.03
2022-11-01T01:02:34.254Z,99144.50
2022-11-01T01:05:37.220Z,99138.41
2022-11-01T01:08:39.793Z,99125.91
2022-11-01T01:11:42.516Z,99108.31
2022-11-01T01:14:44.998Z,99136.66
2022-11-01T01:17:47.821Z,99142.03
2022-11-01T01:20:50.666Z,99139.31
2022-11-01T01:23:54.794Z,99131.38
2022-11-01T01:26:57.277Z,99120.69
2022-11-01T01:30:00.061Z,99109.94
2022-11-01T01:33:02.715Z,99109.06
2022-11-01T01:36:06.613Z,99102.78
2022-11-01T01:39:09.601Z,99098.38
2022-11-01T01:42:20.558Z,99094.75
2022-11-01T01:45:44.284Z,99090.19
2022-11-01T01:48:48.825Z,99075.09
2022-11-01T01:51:51.330Z,99086.50
2022-11-01T01:54:54.376Z,99094.59
2022-11-01T01:57:57.440Z,99094.69
2022-11-01T02:01:00.265Z,99093.94
2022-11-01T02:04:04.762Z,99094.84
2022-11-01T02:07:08.453Z,99090.31
2022-11-01T02:10:11.698Z,99095.69
2022-11-01T02:13:14.795Z,99099.25
2022-11-01T02:16:32.298Z,99100.06
2022-11-01T02:19:51.599Z,99089.34
2022-11-01T02:23:03.656Z,99082.28
2022-11-01T02:26:31.048Z,99090.31
2022-11-01T02:29:45.836Z,99083.09
2022-11-01T02:33:17.738Z,99077.00
2022-11-01T02:36:32.352Z,99080.81
2022-11-01T02:39:38.188Z,99062.34
2022-11-01T02:42:44.362Z,99075.34
2022-11-01T02:45:49.888Z,99077.97
2022-11-01T02:48:53.768Z,99079.72
2022-11-01T02:51:57.743Z,99082.50
2022-11-01T02:55:01.610Z,99076.22
2022-11-01T02:58:22.417Z,99071.63
2022-11-01T03:01:28.301Z,99067.19
2022-11-01T03:04:31.211Z,99061.06
2022-11-01T03:07:33.902Z,99076.28
2022-11-01T03:10:43.709Z,99068.28
2022-11-01T03:14:13.758Z,99065.50
2022-11-01T03:17:41.889Z,99065.78
2022-11-01T03:20:49.088Z,99074.75
2022-11-01T03:24:11.503Z,99072.84
2022-11-01T03:27:24.368Z,99079.09
2022-11-01T03:30:28.628Z,99077.50
2022-11-01T03:33:33.154Z,99079.31
2022-11-01T03:36:39.756Z,99073.97
2022-11-01T03:39:47.963Z,99068.56
2022-11-01T03:42:52.143Z,99075.72
2022-11-01T03:45:54.992Z,99074.94
2022-11-01T03:48:57.801Z,99082.12
2022-11-01T03:52:00.307Z,99075.81
2022-11-01T03:55:18.042Z,99071.44
2022-11-01T03:58:20.647Z,99076.81
2022-11-01T04:01:23.471Z,99068.03
2022-11-01T04:04:26.459Z,99068.94
2022-11-01T04:07:28.879Z,99068.09
2022-11-01T04:10:31.837Z,99061.75
2022-11-01T04:13:34.335Z,99054.50
2022-11-01T04:16:55.635Z,99058.03
2022-11-01T04:20:16.698Z,99053.63
2022-11-01T04:23:19.716Z,99042.91
2022-11-01T04:26:23.395Z,99045.50
2022-11-01T04:29:26.488Z,99048.19
2022-11-01T04:32:28.966Z,99040.34
2022-11-01T04:35:31.707Z,99037.75
2022-11-01T04:38:34.294Z,99040.34
2022-11-01T04:41:37.022Z,99028.59
2022-11-01T04:44:39.420Z,99034.94
2022-11-01T04:47:52.214Z,99037.50
2022-11-01T04:50:54.679Z,99041.94
2022-11-01T04:53:57.452Z,99034.75
2022-11-01T04:57:00.469Z,99041.94
2022-11-01T05:00:03.815Z,99048.16
2022-11-01T05:03:10.757Z,99046.34
2022-11-01T05:06:13.468Z,99047.31
2022-11-01T05:09:15.944Z,99046.34
2022-11-01T05:12:19.245Z,99048.25
2022-11-01T05:15:21.861Z,99047.28
2022-11-01T05:18:25.085Z,99058.97
2022-11-01T05:21:27.538Z,99050.03
2022-11-01T05:24:30.359Z,99046.47
2022-11-01T05:27:32.821Z,99039.41
2022-11-01T05:30:36.769Z,99042.16
2022-11-01T05:33:39.211Z,99042.09
2022-11-01T05:36:41.950Z,99044.12
2022-11-01T05:39:44.478Z,99045.12
2022-11-01T05:42:47.321Z,99036.38
2022-11-01T05:45:49.875Z,99034.69
2022-11-01T05:48:52.765Z,99037.25
2022-11-01T05:51:55.187Z,99035.34
2022-11-01T05:54:58.081Z,99041.50
2022-11-01T05:58:00.736Z,99039.56
2022-11-01T06:01:06.490Z,99039.66
2022-11-01T06:04:09.313Z,99048.47
2022-11-01T06:07:12.117Z,99040.50
2022-11-01T06:10:15.245Z,99042.28
2022-11-01T06:13:18.794Z,99043.31
2022-11-01T06:16:22.396Z,99048.75
2022-11-01T06:19:25.349Z,99045.41
2022-11-01T06:22:28.512Z,99042.06
2022-11-01T06:25:30.990Z,99057.78
2022-11-01T06:28:34.026Z,99052.44
2022-11-01T06:31:36.928Z,99055.87
2022-11-01T06:34:42.480Z,99047.06
2022-11-01T06:37:47.538Z,99057.78
2022-11-01T06:40:50.874Z,99056.87
2022-11-01T06:43:53.744Z,99067.59
2022-11-01T06:46:56.755Z,99045.38
2022-11-01T06:49:59.285Z,99058.50
2022-11-01T06:53:03.150Z,99059.31
2022-11-01T06:56:06.782Z,99065.50
2022-11-01T06:59:09.920Z,99057.47
2022-11-01T07:02:14.722Z,99070.75
2022-11-01T07:05:18.670Z,99054.88
2022-11-01T07:08:21.804Z,99061.81
2022-11-01T07:11:30.141Z,99072.44
2022-11-01T07:14:34.164Z,99074.28
2022-11-01T07:17:36.940Z,99071.56
2022-11-01T07:20:43.075Z,99075.91
2022-11-01T07:23:45.938Z,99079.47
2022-11-01T07:26:48.492Z,99073.09
2022-11-01T07:29:51.281Z,99073.38
2022-11-01T07:33:01.066Z,99061.28
2022-11-01T07:36:04.484Z,99077.03
2022-11-01T07:39:07.271Z,99070.81
2022-11-01T07:42:10.131Z,99075.28
2022-11-01T07:45:13.648Z,99068.03
2022-11-01T07:48:18.176Z,99076.72
2022-11-01T07:51:21.332Z,99076.63
2022-11-01T07:54:24.667Z,99076.41
2022-11-01T07:57:27.380Z,99085.38
2022-11-01T08:00:30.646Z,99076.31
2022-11-01T08:03:33.743Z,99077.19
2022-11-01T08:06:36.159Z,99074.41
2022-11-01T08:09:38.958Z,99069.97
2022-11-01T08:12:41.388Z,99068.19
2022-11-01T08:15:44.737Z,99065.63
2022-11-01T08:18:47.329Z,99067.47
2022-11-01T08:21:53.440Z,99060.31
2022-11-01T08:24:56.043Z,99048.91
2022-11-01T08:28:08.000Z,99068.41
2022-11-01T08:31:11.020Z,99065.56
2022-11-01T08:34:16.891Z,99065.47
2022-11-01T08:37:20.145Z,99060.94
2022-11-01T08:40:23.678Z,99057.09
2022-11-01T08:43:26.838Z,99066.28
2022-11-01T08:46:30.397Z,99062.53
2022-11-01T08:49:33.345Z,99056.75
2022-11-01T08:52:36.809Z,99069.00
2022-11-01T08:55:39.790Z,99074.41
2022-11-01T08:58:42.562Z,99071.47
2022-11-01T09:01:45.149Z,99078.06
2022-11-01T09:04:48.123Z,99060.88
2022-11-01T09:07:56.397Z,99070.31
2022-11-01T09:10:59.349Z,99043.34
2022-11-01T09:14:02.046Z,99063.81
2022-11-01T09:17:05.020Z,99071.97
2022-11-01T09:20:09.501Z,99067.56
2022-11-01T09:23:12.344Z,99058.63
2022-11-01T09:26:14.803Z,99059.69
2022-11-01T09:29:18.964Z,99045.59
2022-11-01T09:32:21.468Z,99057.19
2022-11-01T09:35:24.277Z,99063.41
2022-11-01T09:38:27.162Z,99043.78
2022-11-01T09:41:47.313Z,99028.13
2022-11-01T09:44:52.680Z,99049.97
2022-11-01T09:47:56.900Z,99048.28
2022-11-01T09:51:03.942Z,99049.03
2022-11-01T09:54:08.406Z,99028.97
2022-11-01T09:57:26.714Z,99046.78
2022-11-01T10:00:35.117Z,99049.06
2022-11-01T10:03:53.278Z,99043.91
2022-11-01T10:07:19.045Z,99039.47
2022-11-01T10:10:38.651Z,99040.59
2022-11-01T10:13:46.350Z,99036.31
2022-11-01T10:17:16.276Z,99045.22
2022-11-01T10:20:21.890Z,99040.03
2022-11-01T10:23:33.800Z,99050.06
2022-11-01T10:26:36.834Z,99035.28
2022-11-01T10:29:56.719Z,99034.41
2022-11-01T10:33:06.063Z,99035.19
2022-11-01T10:36:16.480Z,99036.09
2022-11-01T10:39:54.141Z,99031.81
2022-11-01T10:42:59.489Z,99031.81
2022-11-01T10:46:04.314Z,99026.13
2022-11-01T10:49:16.754Z,99015.56
2022-11-01T10:52:29.696Z,99022.88
2022-11-01T10:55:41.814Z,99027.22
2022-11-01T10:58:54.500Z,99028.22
2022-11-01T11:01:59.888Z,99006.38
2022-11-01T11:05:02.675Z,99022.62
2022-11-01T11:08:14.917Z,99010.37
2022-11-01T11:11:19.652Z,99016.53
2022-11-01T11:14:22.757Z,99018.53
2022-11-01T11:17:29.034Z,99018.53
2022-11-01T11:20:34.822Z,99021.31
2022-11-01T11:23:43.433Z,99020.53
2022-11-01T11:26:53.031Z,98936.81
2022-11-01T11:30:06.871Z,99008.91
2022-11-01T11:33:17.870Z,99008.06
2022-11-01T11:36:47.168Z,99006.09
2022-11-01T11:40:10.977Z,99004.63
2022-11-01T11:43:31.451Z,98992.25
2022-11-01T11:46:35.504Z,98990.34
2022-11-01T11:49:40.370Z,98972.09
2022-11-01T11:52:43.704Z,98987.09
2022-11-01T11:55:59.615Z,98983.31
2022-11-01T11:59:08.668Z,98989.53
2022-11-01T12:02:21.009Z,98979.56
2022-11-01T12:05:26.641Z,98987.22
2022-11-01T12:08:38.573Z,98987.47
2022-11-01T12:11:46.105Z,98956.87
2022-11-01T12:14:48.892Z,98986.06
2022-11-01T12:17:51.767Z,98983.44
2022-11-01T12:20:54.325Z,98977.31
2022-11-01T12:24:21.551Z,98977.28
2022-11-01T12:27:25.925Z,98972.94
2022-11-01T12:30:31.478Z,98972.97
2022-11-01T12:33:38.542Z,98967.72
2022-11-01T12:36:52.756Z,98964.28
2022-11-01T12:40:10.851Z,98959.75
2022-11-01T12:43:30.078Z,98966.94
2022-11-01T12:46:47.016Z,98963.16
2022-11-01T12:49:57.119Z,98951.44
2022-11-01T12:53:06.171Z,98949.84
2022-11-01T12:56:09.414Z,98947.16
2022-11-01T12:59:13.801Z,98942.63
2022-11-01T13:02:30.254Z,98942.53
2022-11-01T13:05:58.264Z,98935.53
2022-11-01T13:09:30.743Z,98939.94
2022-11-01T13:12:37.795Z,98934.56
2022-11-01T13:15:59.467Z,98929.06
2022-11-01T13:19:07.901Z,98935.28
2022-11-01T13:22:52.648Z,98944.22
2022-11-01T13:26:02.078Z,98847.34
2022-11-01T13:29:21.687Z,98938.81
2022-11-01T13:32:31.000Z,98935.25
2022-11-01T13:35:47.801Z,98925.34
2022-11-01T13:39:38.082Z,98927.19
2022-11-01T13:42:43.963Z,98930.00
2022-11-01T13:46:12.302Z,98923.81
2022-11-01T13:49:33.871Z,98917.34
2022-11-01T13:52:46.088Z,98913.75
2022-11-01T13:55:54.016Z,98912.75
2022-11-01T13:58:58.631Z,98910.13
2022-11-01T14:02:23.944Z,98910.97
2022-11-01T14:05:37.523Z,98911.87
2022-11-01T14:08:41.840Z,98920.78
2022-11-01T14:11:48.764Z,98919.00
2022-11-01T14:14:52.510Z,98921.69
2022-11-01T14:18:04.593Z,98922.62
2022-11-01T14:21:32.229Z,98919.16
2022-11-01T14:24:53.151Z,98920.94
2022-11-01T14:28:17.261Z,98910.25
2022-11-01T14:31:22.352Z,98911.53
2022-11-01T14:34:29.000Z,98918.41
2022-11-01T14:37:44.091Z,98911.41
2022-11-01T14:40:59.105Z,98912.34
2022-11-01T14:44:11.825Z,98915.31
2022-11-01T14:47:25.343Z,98916.25
2022-11-01T14:50:42.154Z,98917.25
2022-11-01T14:53:47.564Z,98919.03
2022-11-01T14:56:52.652Z,98910.06
2022-11-01T14:59:56.543Z,98914.56
2022-11-01T15:03:01.316Z,98915.44
2022-11-01T15:06:15.701Z,98913.75
2022-11-01T15:09:25.797Z,98924.53
2022-11-01T15:12:31.997Z,98918.31
2022-11-01T15:15:38.304Z,98918.37
2022-11-01T15:18:51.043Z,98897.22
2022-11-01T15:21:56.456Z,98924.63
2022-11-01T15:25:01.031Z,98934.56
2022-11-01T15:28:05.197Z,98933.78
2022-11-01T15:31:09.802Z,98928.44
2022-11-01T15:34:27.588Z,98932.94
2022-11-01T15:37:32.553Z,98932.13
2022-11-01T15:40:35.655Z,98935.78
2022-11-01T15:43:38.230Z,98929.59
2022-11-01T15:46:42.021Z,98919.75
2022-11-01T15:49:47.439Z,98930.50
2022-11-01T15:52:50.252Z,98934.13
2022-11-01T15:55:56.789Z,98932.41
2022-11-01T15:59:01.458Z,98916.63
2022-11-01T16:02:05.634Z,98934.22
2022-11-01T16:05:10.155Z,98934.25
2022-11-01T16:08:22.709Z,98934.22
2022-11-01T16:11:28.529Z,98914.03
2022-11-01T16:14:37.782Z,98922.72
2022-11-01T16:17:43.061Z,98921.03
2022-11-01T16:20:47.991Z,98928.09
2022-11-01T16:24:09.904Z,98932.66
2022-11-01T16:27:27.283Z,98938.91
2022-11-01T16:30:45.520Z,98944.31
2022-11-01T16:33:48.726Z,98938.03
2022-11-01T16:36:52.934Z,98935.34
2022-11-01T16:39:56.377Z,98932.66
2022-11-01T16:42:59.677Z,98939.88
2022-11-01T16:46:05.167Z,98936.25
2022-11-01T16:49:29.575Z,98939.00
2022-11-01T16:52:32.221Z,98936.38
2022-11-01T16:55:37.320Z,98939.06
2022-11-01T16:58:40.287Z,98944.47
2022-11-01T17:01:45.761Z,98947.09
2022-11-01T17:04:50.905Z,98948.84
2022-11-01T17:07:54.787Z,98948.84
2022-11-01T17:10:57.661Z,98944.38
2022-11-01T17:14:00.922Z,98952.47
2022-11-01T17:17:08.730Z,98947.16
2022-11-01T17:20:27.096Z,98955.22
2022-11-01T17:23:29.922Z,98947.16
2022-11-01T17:26:33.858Z,98946.28
2022-11-01T17:29:36.468Z,98944.50
2022-11-01T17:32:39.511Z,98945.44
2022-11-01T17:35:42.111Z,98943.63
2022-11-01T17:38:45.723Z,98949.91
2022-11-01T17:41:48.349Z,98950.91
2022-11-01T17:44:51.549Z,98949.09
2022-11-01T17:47:55.608Z,98945.56
2022-11-01T17:51:01.620Z,98935.91
2022-11-01T17:54:04.308Z,98945.53
2022-11-01T17:57:07.304Z,98943.75
2022-11-01T18:00:10.878Z,98942.81
2022-11-01T18:03:15.247Z,98940.06
2022-11-01T18:06:19.343Z,98939.34
2022-11-01T18:09:24.291Z,98943.06
2022-11-01T18:12:27.137Z,98927.63
2022-11-01T18:15:31.216Z,98934.97
2022-11-01T18:18:51.523Z,98937.75
2022-11-01T18:22:00.311Z,98932.44
2022-11-01T18:25:16.512Z,98930.78
2022-11-01T18:28:30.121Z,98931.78
2022-11-01T18:31:37.207Z,98921.03
2022-11-01T18:34:48.374Z,98926.44
2022-11-01T18:38:14.514Z,98925.56
2022-11-01T18:41:20.469Z,98928.31
2022-11-01T18:44:24.206Z,98931.88
2022-11-01T18:47:33.163Z,98933.72
2022-11-01T18:50:38.572Z,98942.59
2022-11-01T18:53:41.334Z,98933.63
2022-11-01T18:56:49.652Z,98933.56
2022-11-01T18:59:53.581Z,98931.88
2022-11-01T19:03:00.270Z,98939.88
2022-11-01T19:06:16.390Z,98929.13
2022-11-01T19:09:24.863Z,98925.63
2022-11-01T19:12:33.270Z,98921.06
2022-11-01T19:15:36.223Z,98929.13
2022-11-01T19:18:43.422Z,98933.63
2022-11-01T19:21:47.551Z,98930.94
2022-11-01T19:24:50.429Z,98927.34
2022-11-01T19:27:57.094Z,98935.38
2022-11-01T19:31:07.409Z,98938.06
2022-11-01T19:34:16.558Z,98916.22
2022-11-01T19:37:31.815Z,98939.00
2022-11-01T19:40:38.153Z,98936.25
2022-11-01T19:43:42.207Z,98947.00
2022-11-01T19:46:45.789Z,98942.47
2022-11-01T19:49:51.969Z,98932.59
2022-11-01T19:52:57.239Z,98935.34
2022-11-01T19:56:00.674Z,98939.91
2022-11-01T19:59:11.843Z,98934.59
2022-11-01T20:02:22.376Z,98937.16
2022-11-01T20:05:33.555Z,98934.59
2022-11-01T20:08:37.534Z,98939.88
2022-11-01T20:11:42.157Z,98943.59
2022-11-01T20:14:44.950Z,98928.72
2022-11-01T20:17:50.668Z,98956.03
2022-11-01T20:20:55.962Z,98960.53
2022-11-01T20:24:00.260Z,98957.03
2022-11-01T20:27:04.005Z,98957.91
2022-11-01T20:30:10.201Z,98953.59
2022-11-01T20:33:13.374Z,98957.94
2022-11-01T20:36:16.940Z,98948.22
2022-11-01T20:39:22.677Z,98960.59
2022-11-01T20:42:28.110Z,98960.50
2022-11-01T20:45:37.378Z,98953.31
2022-11-01T20:48:41.064Z,98953.34
2022-11-01T20:51:47.185Z,98957.84
2022-11-01T20:54:51.253Z,98956.03
2022-11-01T20:57:54.142Z,98964.06
2022-11-01T21:00:57.883Z,98962.28
2022-11-01T21:04:01.201Z,98954.22
2022-11-01T21:07:14.633Z,98965.81
2022-11-01T21:10:26.967Z,98963.28
2022-11-01T21:13:35.207Z,98956.91
2022-11-01T21:16:39.354Z,98961.41
2022-11-01T21:19:42.160Z,98958.88
2022-11-01T21:22:44.632Z,98957.03
2022-11-01T21:25:49.091Z,98954.31
2022-11-01T21:28:58.307Z,98955.22
2022-11-01T21:32:02.463Z,98957.84
2022-11-01T21:35:20.579Z,98953.50
2022-11-01T21:38:36.071Z,98960.66
2022-11-01T21:41:46.963Z,98960.66
2022-11-01T21:44:50.063Z,98966.03
2022-11-01T21:47:52.485Z,98953.72
2022-11-01T21:50:56.020Z,98964.34
2022-11-01T21:54:03.272Z,98967.03
2022-11-01T21:57:10.466Z,98955.41
2022-11-01T22:00:17.112Z,98956.34
2022-11-01T22:03:19.955Z,98968.97
2022-11-01T22:06:25.755Z,98966.41
2022-11-01T22:09:29.222Z,98956.59
2022-11-01T22:12:32.492Z,98959.44
2022-11-01T22:15:35.852Z,98962.28
2022-11-01T22:18:38.592Z,98956.00
2022-11-01T22:24:48.634Z,98959.59
2022-11-01T22:27:51.448Z,98965.06
2022-11-01T22:30:54.166Z,98973.19
2022-11-01T22:33:57.916Z,98975.00
2022-11-01T22:37:00.681Z,98994.72
2022-11-01T22:40:11.921Z,98974.06
2022-11-01T22:43:16.661Z,98981.25
2022-11-01T22:46:28.960Z,98983.94
2022-11-01T22:49:36.200Z,98967.91
2022-11-01T22:52:43.729Z,98975.28
2022-11-01T22:55:47.408Z,98977.22
2022-11-01T22:58:51.091Z,98981.78
2022-11-01T23:02:00.665Z,98981.91
2022-11-01T23:05:06.474Z,98972.19
2022-11-01T23:08:32.634Z,98974.06
2022-11-01T23:11:53.962Z,98983.19
2022-11-01T23:14:56.596Z,98982.31
2022-11-01T23:18:13.513Z,98981.53
2022-11-01T23:21:17.321Z,98985.97
2022-11-01T23:24:20.104Z,98980.63
2022-11-01T23:27:25.213Z,98975.13
2022-11-01T23:30:28.109Z,98973.22
2022-11-01T23:33:47.349Z,98963.38
2022-11-01T23:36:50.048Z,98955.22
2022-11-01T23:39:52.686Z,98972.22
2022-11-01T23:42:55.441Z,98967.72
2022-11-01T23:45:58.154Z,98972.34
2022-11-01T23:49:04.171Z,98980.31
2022-11-01T23:52:22.706Z,98974.06
2022-11-01T23:55:31.430Z,98989.31
2022-11-01T23:58:35.143Z,98984.94
